sensor_id;sensor_type;location;lat;lon;timestamp;pressure;altitude;pressure_sealevel;temperature;humidity
19831;BME280;10076;52.008;4.708;2023-02-22T00:00:36;101628.13;;;9.24;100.00
19831;BME280;10076;52.008;4.708;2023-02-22T00:05:34;101617.50;;;9.10;100.00
19831;BME280;10076;52.008;4.708;2023-02-22T00:08:00;101610.66;;;9.23;100.00
19831;BME280;10076;52.008;4.708;2023-02-22T00:10:26;101615.94;;;9.39;100.00
19831;BME280;10076;52.008;4.708;2023-02-22T00:12:52;101618.47;;;9.25;100.00
19831;BME280;10076;52.008;4.708;2023-02-22T00:15:21;101611.41;;;9.25;100.00
19831;BME280;10076;52.008;4.708;2023-02-22T00:17:47;101614.34;;;9.04;100.00
19831;BME280;10076;52.008;4.708;2023-02-22T00:20:14;101612.88;;;8.82;100.00
19831;BME280;10076;52.008;4.708;2023-02-22T00:22:43;101609.63;;;8.77;100.00
19831;BME280;10076;52.008;4.708;2023-02-22T00:25:11;101606.81;;;8.80;100.00
19831;BME280;10076;52.008;4.708;2023-02-22T00:27:37;101605.50;;;8.88;100.00
19831;BME280;10076;52.008;4.708;2023-02-22T00:30:04;101603.44;;;8.78;100.00
19831;BME280;10076;52.008;4.708;2023-02-22T00:32:30;101602.50;;;8.62;100.00
19831;BME280;10076;52.008;4.708;2023-02-22T00:34:55;101603.97;;;8.67;100.00
19831;BME280;10076;52.008;4.708;2023-02-22T00:37:20;101598.00;;;8.64;100.00
19831;BME280;10076;52.008;4.708;2023-02-22T00:39:49;101601.56;;;8.63;100.00
19831;BME280;10076;52.008;4.708;2023-02-22T00:42:16;101610.53;;;8.93;100.00
19831;BME280;10076;52.008;4.708;2023-02-22T00:44:43;101609.38;;;8.98;100.00
19831;BME280;10076;52.008;4.708;2023-02-22T00:47:08;101610.06;;;8.68;100.00
19831;BME280;10076;52.008;4.708;2023-02-22T00:49:34;101606.69;;;8.66;100.00
19831;BME280;10076;52.008;4.708;2023-02-22T00:51:59;101602.19;;;8.68;100.00
19831;BME280;10076;52.008;4.708;2023-02-22T00:54:25;101606.38;;;8.72;100.00
19831;BME280;10076;52.008;4.708;2023-02-22T00:56:51;101597.00;;;8.83;100.00
19831;BME280;10076;52.008;4.708;2023-02-22T00:59:17;101602.34;;;8.82;100.00
19831;BME280;10076;52.008;4.708;2023-02-22T01:01:42;101596.91;;;8.85;100.00
19831;BME280;10076;52.008;4.708;2023-02-22T01:04:08;101587.63;;;8.78;100.00
19831;BME280;10076;52.008;4.708;2023-02-22T01:06:34;101589.88;;;8.68;100.00
19831;BME280;10076;52.008;4.708;2023-02-22T01:09:00;101592.53;;;8.68;100.00
19831;BME280;10076;52.008;4.708;2023-02-22T01:11:27;101590.00;;;8.31;100.00
19831;BME280;10076;52.008;4.708;2023-02-22T01:13:52;101584.66;;;8.67;100.00
19831;BME280;10076;52.008;4.708;2023-02-22T01:16:19;101584.31;;;8.57;100.00
19831;BME280;10076;52.008;4.708;2023-02-22T01:18:44;101586.00;;;8.41;100.00
19831;BME280;10076;52.008;4.708;2023-02-22T01:21:10;101586.56;;;8.48;100.00
19831;BME280;10076;52.008;4.708;2023-02-22T01:23:35;101576.78;;;8.33;100.00
19831;BME280;10076;52.008;4.708;2023-02-22T01:26:01;101576.88;;;8.13;100.00
19831;BME280;10076;52.008;4.708;2023-02-22T01:28:29;101571.91;;;8.07;100.00
19831;BME280;10076;52.008;4.708;2023-02-22T01:30:55;101573.59;;;8.26;100.00
19831;BME280;10076;52.008;4.708;2023-02-22T01:33:20;101575.16;;;8.30;100.00
19831;BME280;10076;52.008;4.708;2023-02-22T01:35:46;101579.28;;;8.53;100.00
19831;BME280;10076;52.008;4.708;2023-02-22T01:38:11;101573.84;;;8.39;100.00
19831;BME280;10076;52.008;4.708;2023-02-22T01:40:40;101566.56;;;8.44;100.00
19831;BME280;10076;52.008;4.708;2023-02-22T01:43:19;101563.41;;;8.37;100.00
19831;BME280;10076;52.008;4.708;2023-02-22T01:46:03;101558.66;;;8.44;100.00
19831;BME280;10076;52.008;4.708;2023-02-22T01:48:47;101560.97;;;8.33;100.00
19831;BME280;10076;52.008;4.708;2023-02-22T01:51:19;101553.88;;;8.35;100.00
19831;BME280;10076;52.008;4.708;2023-02-22T01:53:54;101548.84;;;8.47;100.00
19831;BME280;10076;52.008;4.708;2023-02-22T01:56:22;101549.31;;;8.38;100.00
19831;BME280;10076;52.008;4.708;2023-02-22T01:59:01;101552.41;;;8.46;100.00
19831;BME280;10076;52.008;4.708;2023-02-22T02:01:28;101548.31;;;8.41;100.00
19831;BME280;10076;52.008;4.708;2023-02-22T02:03:56;101544.38;;;8.32;100.00
19831;BME280;10076;52.008;4.708;2023-02-22T02:06:23;101545.38;;;8.47;100.00
19831;BME280;10076;52.008;4.708;2023-02-22T02:08:58;101538.88;;;8.37;100.00
19831;BME280;10076;52.008;4.708;2023-02-22T02:11:27;101536.28;;;8.19;100.00
19831;BME280;10076;52.008;4.708;2023-02-22T02:13:55;101532.22;;;8.30;100.00
19831;BME280;10076;52.008;4.708;2023-02-22T02:16:23;101535.06;;;8.25;100.00
19831;BME280;10076;52.008;4.708;2023-02-22T02:18:50;101527.34;;;8.39;100.00
19831;BME280;10076;52.008;4.708;2023-02-22T02:30:31;101525.06;;;7.80;100.00
19831;BME280;10076;52.008;4.708;2023-02-22T02:32:35;101525.56;;;7.88;100.00
19831;BME280;10076;52.008;4.708;2023-02-22T02:38:30;101514.16;;;8.06;100.00
19831;BME280;10076;52.008;4.708;2023-02-22T02:41:08;101522.91;;;8.23;100.00
19831;BME280;10076;52.008;4.708;2023-02-22T02:46:14;101507.16;;;7.88;100.00
19831;BME280;10076;52.008;4.708;2023-02-22T02:48:43;101506.78;;;7.95;100.00
19831;BME280;10076;52.008;4.708;2023-02-22T02:51:12;101503.13;;;7.98;100.00
19831;BME280;10076;52.008;4.708;2023-02-22T02:53:43;101496.66;;;7.88;100.00
19831;BME280;10076;52.008;4.708;2023-02-22T02:56:09;101500.41;;;7.82;100.00
19831;BME280;10076;52.008;4.708;2023-02-22T02:58:50;101481.53;;;7.74;100.00
19831;BME280;10076;52.008;4.708;2023-02-22T03:01:52;101474.81;;;7.86;100.00
19831;BME280;10076;52.008;4.708;2023-02-22T03:09:57;101467.84;;;7.85;100.00
19831;BME280;10076;52.008;4.708;2023-02-22T03:18:10;101464.13;;;7.72;100.00
19831;BME280;10076;52.008;4.708;2023-02-22T03:23:27;101456.19;;;7.73;100.00
19831;BME280;10076;52.008;4.708;2023-02-22T03:26:07;101454.00;;;7.64;100.00
19831;BME280;10076;52.008;4.708;2023-02-22T03:28:35;101457.25;;;7.86;100.00
19831;BME280;10076;52.008;4.708;2023-02-22T03:31:09;101450.94;;;7.90;100.00
19831;BME280;10076;52.008;4.708;2023-02-22T03:36:12;101441.47;;;7.86;100.00
19831;BME280;10076;52.008;4.708;2023-02-22T03:38:40;101441.25;;;7.91;100.00
19831;BME280;10076;52.008;4.708;2023-02-22T03:41:08;101437.69;;;7.75;100.00
19831;BME280;10076;52.008;4.708;2023-02-22T03:43:42;101435.78;;;7.78;100.00
19831;BME280;10076;52.008;4.708;2023-02-22T03:46:09;101429.28;;;8.02;100.00
19831;BME280;10076;52.008;4.708;2023-02-22T03:49:26;101422.94;;;7.89;100.00
19831;BME280;10076;52.008;4.708;2023-02-22T03:51:31;101420.09;;;7.77;100.00
19831;BME280;10076;52.008;4.708;2023-02-22T03:53:56;101415.06;;;7.72;100.00
19831;BME280;10076;52.008;4.708;2023-02-22T03:56:29;101412.56;;;7.69;100.00
19831;BME280;10076;52.008;4.708;2023-02-22T03:59:01;101407.59;;;7.47;100.00
19831;BME280;10076;52.008;4.708;2023-02-22T04:01:27;101406.19;;;7.40;100.00
19831;BME280;10076;52.008;4.708;2023-02-22T04:03:52;101395.53;;;7.43;100.00
19831;BME280;10076;52.008;4.708;2023-02-22T04:06:18;101395.06;;;7.52;100.00
19831;BME280;10076;52.008;4.708;2023-02-22T04:08:43;101391.69;;;7.66;100.00
19831;BME280;10076;52.008;4.708;2023-02-22T04:11:08;101387.53;;;7.62;100.00
19831;BME280;10076;52.008;4.708;2023-02-22T04:13:33;101393.09;;;7.56;100.00
19831;BME280;10076;52.008;4.708;2023-02-22T04:15:59;101379.78;;;7.43;100.00
19831;BME280;10076;52.008;4.708;2023-02-22T04:18:24;101379.00;;;7.57;100.00
19831;BME280;10076;52.008;4.708;2023-02-22T04:20:49;101385.66;;;7.48;100.00
19831;BME280;10076;52.008;4.708;2023-02-22T04:23:15;101376.84;;;7.49;100.00
19831;BME280;10076;52.008;4.708;2023-02-22T04:25:41;101373.69;;;7.59;100.00
19831;BME280;10076;52.008;4.708;2023-02-22T04:28:06;101374.31;;;7.64;100.00
19831;BME280;10076;52.008;4.708;2023-02-22T04:30:31;101374.94;;;7.86;100.00
19831;BME280;10076;52.008;4.708;2023-02-22T04:32:57;101375.84;;;7.85;100.00
19831;BME280;10076;52.008;4.708;2023-02-22T04:35:22;101383.50;;;8.06;100.00
19831;BME280;10076;52.008;4.708;2023-02-22T04:37:48;101370.28;;;7.91;100.00
19831;BME280;10076;52.008;4.708;2023-02-22T04:40:15;101365.09;;;8.06;100.00
19831;BME280;10076;52.008;4.708;2023-02-22T04:42:41;101374.09;;;7.85;100.00
19831;BME280;10076;52.008;4.708;2023-02-22T04:45:09;101373.22;;;7.85;100.00
19831;BME280;10076;52.008;4.708;2023-02-22T04:47:36;101363.00;;;7.79;100.00
19831;BME280;10076;52.008;4.708;2023-02-22T04:50:05;101361.25;;;7.79;100.00
19831;BME280;10076;52.008;4.708;2023-02-22T04:52:31;101361.38;;;7.93;100.00
19831;BME280;10076;52.008;4.708;2023-02-22T04:54:56;101363.78;;;7.98;100.00
19831;BME280;10076;52.008;4.708;2023-02-22T04:57:22;101354.59;;;7.89;100.00
19831;BME280;10076;52.008;4.708;2023-02-22T04:59:47;101349.63;;;8.00;100.00
19831;BME280;10076;52.008;4.708;2023-02-22T05:02:12;101350.78;;;7.95;100.00
19831;BME280;10076;52.008;4.708;2023-02-22T05:04:38;101354.41;;;7.92;100.00
19831;BME280;10076;52.008;4.708;2023-02-22T05:07:04;101353.63;;;8.07;100.00
19831;BME280;10076;52.008;4.708;2023-02-22T05:09:29;101358.66;;;7.95;100.00
19831;BME280;10076;52.008;4.708;2023-02-22T05:11:54;101350.16;;;8.07;100.00
19831;BME280;10076;52.008;4.708;2023-02-22T05:14:20;101351.25;;;8.03;100.00
19831;BME280;10076;52.008;4.708;2023-02-22T05:16:47;101348.47;;;8.06;100.00
19831;BME280;10076;52.008;4.708;2023-02-22T05:19:14;101347.19;;;8.13;100.00
19831;BME280;10076;52.008;4.708;2023-02-22T05:21:39;101349.72;;;7.99;100.00
19831;BME280;10076;52.008;4.708;2023-02-22T05:24:05;101348.91;;;8.14;100.00
19831;BME280;10076;52.008;4.708;2023-02-22T05:26:31;101348.06;;;8.13;100.00
19831;BME280;10076;52.008;4.708;2023-02-22T05:28:56;101339.78;;;8.04;100.00
19831;BME280;10076;52.008;4.708;2023-02-22T05:31:21;101331.84;;;7.88;100.00
19831;BME280;10076;52.008;4.708;2023-02-22T05:33:46;101331.34;;;7.65;100.00
19831;BME280;10076;52.008;4.708;2023-02-22T05:36:12;101331.56;;;7.60;100.00
19831;BME280;10076;52.008;4.708;2023-02-22T05:38:38;101339.06;;;7.68;100.00
19831;BME280;10076;52.008;4.708;2023-02-22T05:41:11;101335.44;;;7.53;100.00
19831;BME280;10076;52.008;4.708;2023-02-22T05:43:38;101344.91;;;7.73;100.00
19831;BME280;10076;52.008;4.708;2023-02-22T05:46:03;101338.13;;;7.69;100.00
19831;BME280;10076;52.008;4.708;2023-02-22T05:48:29;101330.25;;;7.69;100.00
19831;BME280;10076;52.008;4.708;2023-02-22T05:50:55;101333.81;;;7.51;100.00
19831;BME280;10076;52.008;4.708;2023-02-22T05:53:20;101331.34;;;7.65;100.00
19831;BME280;10076;52.008;4.708;2023-02-22T05:55:48;101321.06;;;7.60;100.00
19831;BME280;10076;52.008;4.708;2023-02-22T05:58:13;101314.78;;;7.63;100.00
19831;BME280;10076;52.008;4.708;2023-02-22T06:00:39;101306.13;;;7.44;100.00
19831;BME280;10076;52.008;4.708;2023-02-22T06:03:06;101305.22;;;7.45;100.00
19831;BME280;10076;52.008;4.708;2023-02-22T06:05:32;101303.66;;;7.41;100.00
19831;BME280;10076;52.008;4.708;2023-02-22T06:07:58;101293.38;;;7.20;100.00
19831;BME280;10076;52.008;4.708;2023-02-22T06:10:24;101299.03;;;7.29;100.00
19831;BME280;10076;52.008;4.708;2023-02-22T06:12:50;101290.53;;;7.24;100.00
19831;BME280;10076;52.008;4.708;2023-02-22T06:15:16;101290.69;;;7.38;100.00
19831;BME280;10076;52.008;4.708;2023-02-22T06:17:43;101291.84;;;7.50;100.00
19831;BME280;10076;52.008;4.708;2023-02-22T06:20:10;101292.84;;;7.47;100.00
19831;BME280;10076;52.008;4.708;2023-02-22T06:22:36;101292.59;;;7.68;100.00
19831;BME280;10076;52.008;4.708;2023-02-22T06:25:02;101281.63;;;7.77;100.00
19831;BME280;10076;52.008;4.708;2023-02-22T06:27:31;101283.16;;;7.81;100.00
19831;BME280;10076;52.008;4.708;2023-02-22T06:29:57;101277.44;;;7.90;100.00
19831;BME280;10076;52.008;4.708;2023-02-22T06:32:22;101273.09;;;7.89;100.00
19831;BME280;10076;52.008;4.708;2023-02-22T06:34:48;101276.41;;;7.93;100.00
19831;BME280;10076;52.008;4.708;2023-02-22T06:37:13;101280.56;;;7.97;100.00
19831;BME280;10076;52.008;4.708;2023-02-22T06:39:38;101288.31;;;8.00;100.00
19831;BME280;10076;52.008;4.708;2023-02-22T06:42:03;101284.66;;;8.02;100.00
19831;BME280;10076;52.008;4.708;2023-02-22T06:44:29;101288.66;;;8.09;100.00
19831;BME280;10076;52.008;4.708;2023-02-22T06:46:54;101290.97;;;8.15;100.00
19831;BME280;10076;52.008;4.708;2023-02-22T06:49:20;101285.72;;;8.15;100.00
19831;BME280;10076;52.008;4.708;2023-02-22T06:51:46;101303.06;;;8.19;100.00
19831;BME280;10076;52.008;4.708;2023-02-22T06:54:12;101299.75;;;7.99;100.00
19831;BME280;10076;52.008;4.708;2023-02-22T06:56:37;101299.28;;;7.91;100.00
19831;BME280;10076;52.008;4.708;2023-02-22T06:59:02;101301.03;;;7.75;100.00
19831;BME280;10076;52.008;4.708;2023-02-22T07:01:28;101294.72;;;7.94;100.00
19831;BME280;10076;52.008;4.708;2023-02-22T07:03:53;101287.66;;;7.79;100.00
19831;BME280;10076;52.008;4.708;2023-02-22T07:06:19;101280.78;;;7.92;100.00
19831;BME280;10076;52.008;4.708;2023-02-22T07:08:44;101285.72;;;7.98;100.00
19831;BME280;10076;52.008;4.708;2023-02-22T07:11:09;101295.97;;;7.87;100.00
19831;BME280;10076;52.008;4.708;2023-02-22T07:13:35;101297.22;;;7.80;100.00
19831;BME280;10076;52.008;4.708;2023-02-22T07:16:00;101304.13;;;7.98;100.00
19831;BME280;10076;52.008;4.708;2023-02-22T07:18:25;101295.44;;;7.81;100.00
19831;BME280;10076;52.008;4.708;2023-02-22T07:20:50;101290.88;;;7.84;100.00
19831;BME280;10076;52.008;4.708;2023-02-22T07:23:16;101296.06;;;7.86;100.00
19831;BME280;10076;52.008;4.708;2023-02-22T07:25:42;101312.06;;;7.64;100.00
19831;BME280;10076;52.008;4.708;2023-02-22T07:28:08;101321.66;;;7.82;100.00
19831;BME280;10076;52.008;4.708;2023-02-22T07:30:35;101326.22;;;7.79;100.00
19831;BME280;10076;52.008;4.708;2023-02-22T07:33:06;101325.34;;;7.95;100.00
19831;BME280;10076;52.008;4.708;2023-02-22T07:35:34;101311.13;;;7.82;100.00
19831;BME280;10076;52.008;4.708;2023-02-22T07:38:06;101308.91;;;7.75;100.00
19831;BME280;10076;52.008;4.708;2023-02-22T07:40:32;101319.31;;;7.93;100.00
19831;BME280;10076;52.008;4.708;2023-02-22T07:43:02;101312.28;;;7.94;100.00
19831;BME280;10076;52.008;4.708;2023-02-22T07:45:32;101309.06;;;7.72;100.00
19831;BME280;10076;52.008;4.708;2023-02-22T07:47:59;101312.22;;;7.95;100.00
19831;BME280;10076;52.008;4.708;2023-02-22T07:50:27;101315.34;;;8.02;100.00
19831;BME280;10076;52.008;4.708;2023-02-22T07:52:56;101310.97;;;8.02;100.00
19831;BME280;10076;52.008;4.708;2023-02-22T07:55:24;101319.22;;;7.95;100.00
19831;BME280;10076;52.008;4.708;2023-02-22T07:57:52;101315.53;;;8.16;100.00
19831;BME280;10076;52.008;4.708;2023-02-22T08:00:26;101325.38;;;8.27;100.00
19831;BME280;10076;52.008;4.708;2023-02-22T08:02:52;101310.16;;;8.17;100.00
19831;BME280;10076;52.008;4.708;2023-02-22T08:05:18;101321.16;;;8.08;100.00
19831;BME280;10076;52.008;4.708;2023-02-22T08:07:44;101312.09;;;8.46;100.00
19831;BME280;10076;52.008;4.708;2023-02-22T08:10:10;101318.47;;;8.42;100.00
19831;BME280;10076;52.008;4.708;2023-02-22T08:12:36;101313.19;;;8.42;100.00
19831;BME280;10076;52.008;4.708;2023-02-22T08:15:07;101305.50;;;8.22;100.00
19831;BME280;10076;52.008;4.708;2023-02-22T08:17:33;101306.38;;;8.23;100.00
19831;BME280;10076;52.008;4.708;2023-02-22T08:19:58;101291.09;;;8.29;100.00
19831;BME280;10076;52.008;4.708;2023-02-22T08:22:24;101292.50;;;8.51;100.00
19831;BME280;10076;52.008;4.708;2023-02-22T08:24:52;101289.31;;;8.45;100.00
19831;BME280;10076;52.008;4.708;2023-02-22T08:27:28;101277.53;;;8.52;100.00
19831;BME280;10076;52.008;4.708;2023-02-22T08:29:54;101273.47;;;8.62;100.00
19831;BME280;10076;52.008;4.708;2023-02-22T08:32:20;101268.88;;;8.81;100.00
19831;BME280;10076;52.008;4.708;2023-02-22T08:34:46;101257.44;;;8.95;100.00
19831;BME280;10076;52.008;4.708;2023-02-22T08:37:12;101258.28;;;9.11;100.00
19831;BME280;10076;52.008;4.708;2023-02-22T08:39:37;101259.38;;;9.07;100.00
19831;BME280;10076;52.008;4.708;2023-02-22T08:42:02;101256.81;;;9.21;100.00
19831;BME280;10076;52.008;4.708;2023-02-22T08:44:28;101258.25;;;9.27;100.00
19831;BME280;10076;52.008;4.708;2023-02-22T08:46:53;101265.50;;;9.37;100.00
19831;BME280;10076;52.008;4.708;2023-02-22T08:49:19;101266.69;;;9.47;100.00
19831;BME280;10076;52.008;4.708;2023-02-22T08:51:45;101261.88;;;9.54;100.00
19831;BME280;10076;52.008;4.708;2023-02-22T08:54:10;101257.66;;;9.65;100.00
19831;BME280;10076;52.008;4.708;2023-02-22T08:56:35;101256.38;;;9.86;100.00
19831;BME280;10076;52.008;4.708;2023-02-22T08:59:01;101252.44;;;9.93;100.00
19831;BME280;10076;52.008;4.708;2023-02-22T09:01:26;101249.44;;;9.99;100.00
19831;BME280;10076;52.008;4.708;2023-02-22T09:03:53;101250.94;;;10.03;100.00
19831;BME280;10076;52.008;4.708;2023-02-22T09:06:20;101243.03;;;10.17;100.00
19831;BME280;10076;52.008;4.708;2023-02-22T09:08:45;101237.28;;;10.10;100.00
19831;BME280;10076;52.008;4.708;2023-02-22T09:11:10;101231.63;;;10.16;100.00
19831;BME280;10076;52.008;4.708;2023-02-22T09:13:36;101218.13;;;10.21;100.00
19831;BME280;10076;52.008;4.708;2023-02-22T09:16:01;101218.81;;;10.10;100.00
19831;BME280;10076;52.008;4.708;2023-02-22T09:18:27;101218.97;;;10.21;100.00
19831;BME280;10076;52.008;4.708;2023-02-22T09:20:53;101224.56;;;10.03;100.00
19831;BME280;10076;52.008;4.708;2023-02-22T09:23:19;101219.47;;;10.00;100.00
19831;BME280;10076;52.008;4.708;2023-02-22T09:25:48;101222.59;;;10.06;100.00
19831;BME280;10076;52.008;4.708;2023-02-22T09:28:13;101221.63;;;10.21;100.00
19831;BME280;10076;52.008;4.708;2023-02-22T09:30:39;101221.34;;;10.26;100.00
19831;BME280;10076;52.008;4.708;2023-02-22T09:33:16;101224.25;;;10.35;100.00
19831;BME280;10076;52.008;4.708;2023-02-22T09:35:44;101201.19;;;10.51;100.00
19831;BME280;10076;52.008;4.708;2023-02-22T09:38:15;101215.53;;;10.47;100.00
19831;BME280;10076;52.008;4.708;2023-02-22T09:40:46;101212.66;;;10.64;100.00
19831;BME280;10076;52.008;4.708;2023-02-22T09:43:23;101231.72;;;10.15;100.00
19831;BME280;10076;52.008;4.708;2023-02-22T09:46:04;101242.44;;;10.26;100.00
19831;BME280;10076;52.008;4.708;2023-02-22T09:48:49;101249.00;;;10.46;100.00
19831;BME280;10076;52.008;4.708;2023-02-22T09:51:17;101244.09;;;10.40;100.00
19831;BME280;10076;52.008;4.708;2023-02-22T09:53:47;101245.91;;;10.54;100.00
19831;BME280;10076;52.008;4.708;2023-02-22T09:56:16;101255.41;;;10.56;100.00
19831;BME280;10076;52.008;4.708;2023-02-22T09:58:48;101257.28;;;10.54;100.00
19831;BME280;10076;52.008;4.708;2023-02-22T10:01:29;101265.66;;;10.61;100.00
19831;BME280;10076;52.008;4.708;2023-02-22T10:04:19;101260.69;;;10.56;100.00
19831;BME280;10076;52.008;4.708;2023-02-22T10:09:51;101242.06;;;10.45;100.00
19831;BME280;10076;52.008;4.708;2023-02-22T10:12:31;101234.69;;;10.23;100.00
19831;BME280;10076;52.008;4.708;2023-02-22T10:17:59;101221.47;;;10.50;100.00
19831;BME280;10076;52.008;4.708;2023-02-22T10:23:43;101242.66;;;10.89;100.00
19831;BME280;10076;52.008;4.708;2023-02-22T10:28:40;101234.66;;;11.42;100.00
19831;BME280;10076;52.008;4.708;2023-02-22T10:31:08;101240.09;;;11.53;100.00
19831;BME280;10076;52.008;4.708;2023-02-22T10:33:40;101240.00;;;11.79;100.00
19831;BME280;10076;52.008;4.708;2023-02-22T10:36:17;101242.75;;;11.90;100.00
19831;BME280;10076;52.008;4.708;2023-02-22T10:38:50;101230.91;;;11.95;100.00
19831;BME280;10076;52.008;4.708;2023-02-22T10:43:47;101243.16;;;11.96;100.00
19831;BME280;10076;52.008;4.708;2023-02-22T10:46:16;101240.97;;;11.78;100.00
19831;BME280;10076;52.008;4.708;2023-02-22T10:48:46;101233.56;;;11.95;100.00
19831;BME280;10076;52.008;4.708;2023-02-22T10:51:14;101227.50;;;12.18;100.00
19831;BME280;10076;52.008;4.708;2023-02-22T10:53:39;101235.53;;;12.04;100.00
19831;BME280;10076;52.008;4.708;2023-02-22T10:56:15;101226.06;;;12.38;100.00
19831;BME280;10076;52.008;4.708;2023-02-22T10:58:49;101226.88;;;12.74;100.00
19831;BME280;10076;52.008;4.708;2023-02-22T11:03:58;101211.75;;;13.33;100.00
19831;BME280;10076;52.008;4.708;2023-02-22T11:06:23;101214.53;;;12.98;100.00
19831;BME280;10076;52.008;4.708;2023-02-22T11:08:49;101206.78;;;12.95;100.00
19831;BME280;10076;52.008;4.708;2023-02-22T11:11:22;101197.16;;;12.94;100.00
19831;BME280;10076;52.008;4.708;2023-02-22T11:13:55;101189.91;;;12.96;100.00
19831;BME280;10076;52.008;4.708;2023-02-22T11:16:33;101182.97;;;13.06;100.00
19831;BME280;10076;52.008;4.708;2023-02-22T11:19:24;101202.25;;;13.08;100.00
19831;BME280;10076;52.008;4.708;2023-02-22T11:21:54;101188.34;;;12.93;100.00
19831;BME280;10076;52.008;4.708;2023-02-22T11:24:22;101196.19;;;12.95;100.00
19831;BME280;10076;52.008;4.708;2023-02-22T11:26:57;101186.81;;;13.02;100.00
19831;BME280;10076;52.008;4.708;2023-02-22T11:29:30;101195.78;;;12.65;100.00
19831;BME280;10076;52.008;4.708;2023-02-22T11:31:57;101176.38;;;12.41;100.00
19831;BME280;10076;52.008;4.708;2023-02-22T11:34:37;101185.84;;;12.56;100.00
19831;BME280;10076;52.008;4.708;2023-02-22T11:37:28;101186.41;;;12.13;100.00
19831;BME280;10076;52.008;4.708;2023-02-22T11:42:45;101188.72;;;12.17;100.00
19831;BME280;10076;52.008;4.708;2023-02-22T11:45:19;101179.84;;;12.06;100.00
19831;BME280;10076;52.008;4.708;2023-02-22T11:48:01;101168.78;;;11.76;100.00
19831;BME280;10076;52.008;4.708;2023-02-22T11:50:35;101169.06;;;12.09;100.00
19831;BME280;10076;52.008;4.708;2023-02-22T11:55:57;101167.63;;;12.28;100.00
19831;BME280;10076;52.008;4.708;2023-02-22T12:01:38;101159.16;;;11.87;100.00
19831;BME280;10076;52.008;4.708;2023-02-22T12:20:46;101141.97;;;12.88;100.00
19831;BME280;10076;52.008;4.708;2023-02-22T12:23:46;101132.41;;;13.19;100.00
19831;BME280;10076;52.008;4.708;2023-02-22T12:26:34;101140.91;;;13.57;100.00
19831;BME280;10076;52.008;4.708;2023-02-22T12:31:48;101136.06;;;13.95;100.00
19831;BME280;10076;52.008;4.708;2023-02-22T12:34:30;101134.84;;;13.99;100.00
19831;BME280;10076;52.008;4.708;2023-02-22T12:37:17;101139.44;;;13.97;100.00
19831;BME280;10076;52.008;4.708;2023-02-22T12:42:46;101132.69;;;13.71;100.00
19831;BME280;10076;52.008;4.708;2023-02-22T12:45:19;101132.69;;;13.38;100.00
19831;BME280;10076;52.008;4.708;2023-02-22T12:47:56;101138.47;;;13.43;100.00
19831;BME280;10076;52.008;4.708;2023-02-22T12:50:27;101131.34;;;13.33;100.00
19831;BME280;10076;52.008;4.708;2023-02-22T12:53:20;101139.72;;;13.16;100.00
19831;BME280;10076;52.008;4.708;2023-02-22T12:55:51;101142.47;;;13.04;100.00
19831;BME280;10076;52.008;4.708;2023-02-22T13:01:25;101144.72;;;13.31;100.00
19831;BME280;10076;52.008;4.708;2023-02-22T13:03:52;101147.22;;;13.22;100.00
19831;BME280;10076;52.008;4.708;2023-02-22T13:11:52;101146.69;;;12.95;100.00
19831;BME280;10076;52.008;4.708;2023-02-22T13:19:43;101144.63;;;12.75;100.00
19831;BME280;10076;52.008;4.708;2023-02-22T13:22:21;101145.88;;;12.82;100.00
19831;BME280;10076;52.008;4.708;2023-02-22T13:27:39;101146.47;;;12.86;100.00
19831;BME280;10076;52.008;4.708;2023-02-22T13:33:06;101134.78;;;12.77;100.00
19831;BME280;10076;52.008;4.708;2023-02-22T13:35:56;101146.22;;;13.01;100.00
19831;BME280;10076;52.008;4.708;2023-02-22T13:43:59;101137.69;;;13.09;100.00
19831;BME280;10076;52.008;4.708;2023-02-22T13:52:05;101148.28;;;13.09;100.00
19831;BME280;10076;52.008;4.708;2023-02-22T13:54:44;101144.28;;;13.03;100.00
19831;BME280;10076;52.008;4.708;2023-02-22T13:57:38;101143.84;;;12.86;100.00
19831;BME280;10076;52.008;4.708;2023-02-22T14:13:14;101141.00;;;13.45;100.00
19831;BME280;10076;52.008;4.708;2023-02-22T14:18:30;101147.09;;;13.23;100.00
19831;BME280;10076;52.008;4.708;2023-02-22T14:21:20;101155.09;;;13.34;100.00
19831;BME280;10076;52.008;4.708;2023-02-22T14:23:55;101147.44;;;13.08;100.00
19831;BME280;10076;52.008;4.708;2023-02-22T14:26:36;101147.53;;;13.07;100.00
19831;BME280;10076;52.008;4.708;2023-02-22T14:37:13;101154.34;;;12.87;100.00
19831;BME280;10076;52.008;4.708;2023-02-22T14:39:47;101156.31;;;12.73;100.00
19831;BME280;10076;52.008;4.708;2023-02-22T14:47:43;101166.69;;;12.76;100.00
19831;BME280;10076;52.008;4.708;2023-02-22T14:50:18;101162.63;;;12.59;100.00
19831;BME280;10076;52.008;4.708;2023-02-22T14:52:54;101167.59;;;12.64;100.00
19831;BME280;10076;52.008;4.708;2023-02-22T14:55:24;101166.28;;;12.46;100.00
19831;BME280;10076;52.008;4.708;2023-02-22T15:00:27;101175.25;;;12.56;100.00
19831;BME280;10076;52.008;4.708;2023-02-22T15:02:57;101167.41;;;12.54;100.00
19831;BME280;10076;52.008;4.708;2023-02-22T15:05:24;101183.88;;;12.47;100.00
19831;BME280;10076;52.008;4.708;2023-02-22T15:07:59;101175.50;;;12.40;100.00
19831;BME280;10076;52.008;4.708;2023-02-22T15:13:02;101181.25;;;12.35;100.00
19831;BME280;10076;52.008;4.708;2023-02-22T15:15:45;101187.84;;;12.29;100.00
19831;BME280;10076;52.008;4.708;2023-02-22T15:18:34;101188.97;;;12.02;100.00
19831;BME280;10076;52.008;4.708;2023-02-22T15:23:46;101191.28;;;12.06;100.00
19831;BME280;10076;52.008;4.708;2023-02-22T15:26:37;101198.72;;;11.89;100.00
19831;BME280;10076;52.008;4.708;2023-02-22T15:29:09;101190.38;;;11.82;100.00